sensor_id;sensor_type;location;lat;lon;timestamp;P1;durP1;ratioP1;P2;durP2;ratioP2
19778;SDS011;10049;59.306;18.090;2023-03-21T00:02:03;2.77;;;1.57;;
19778;SDS011;10049;59.306;18.090;2023-03-21T00:04:31;2.63;;;1.90;;
19778;SDS011;10049;59.306;18.090;2023-03-21T00:06:59;2.53;;;1.83;;
19778;SDS011;10049;59.306;18.090;2023-03-21T00:09:27;2.27;;;1.50;;
19778;SDS011;10049;59.306;18.090;2023-03-21T00:11:58;1.97;;;1.60;;
19778;SDS011;10049;59.306;18.090;2023-03-21T00:14:27;2.53;;;1.80;;
19778;SDS011;10049;59.306;18.090;2023-03-21T00:16:54;2.00;;;1.70;;
19778;SDS011;10049;59.306;18.090;2023-03-21T00:19:22;3.30;;;1.67;;
19778;SDS011;10049;59.306;18.090;2023-03-21T00:21:53;2.33;;;1.70;;
19778;SDS011;10049;59.306;18.090;2023-03-21T00:24:21;2.40;;;1.67;;
19778;SDS011;10049;59.306;18.090;2023-03-21T00:26:49;2.77;;;1.67;;
19778;SDS011;10049;59.306;18.090;2023-03-21T00:29:18;2.43;;;1.87;;
19778;SDS011;10049;59.306;18.090;2023-03-21T00:31:47;2.73;;;1.70;;
19778;SDS011;10049;59.306;18.090;2023-03-21T00:34:15;4.33;;;1.70;;
19778;SDS011;10049;59.306;18.090;2023-03-21T00:36:42;2.33;;;1.80;;
19778;SDS011;10049;59.306;18.090;2023-03-21T00:39:10;5.33;;;1.90;;
19778;SDS011;10049;59.306;18.090;2023-03-21T00:41:38;2.60;;;1.80;;
19778;SDS011;10049;59.306;18.090;2023-03-21T00:44:08;1.80;;;1.40;;
19778;SDS011;10049;59.306;18.090;2023-03-21T00:46:37;1.90;;;1.67;;
19778;SDS011;10049;59.306;18.090;2023-03-21T00:49:06;2.40;;;1.67;;
19778;SDS011;10049;59.306;18.090;2023-03-21T00:51:34;2.65;;;1.55;;
19778;SDS011;10049;59.306;18.090;2023-03-21T00:54:02;2.30;;;1.60;;
19778;SDS011;10049;59.306;18.090;2023-03-21T00:56:31;1.73;;;1.33;;
19778;SDS011;10049;59.306;18.090;2023-03-21T00:58:59;2.83;;;1.60;;
19778;SDS011;10049;59.306;18.090;2023-03-21T01:01:28;3.47;;;1.38;;
19778;SDS011;10049;59.306;18.090;2023-03-21T01:04:01;2.00;;;1.20;;
19778;SDS011;10049;59.306;18.090;2023-03-21T01:06:31;2.43;;;1.27;;
19778;SDS011;10049;59.306;18.090;2023-03-21T01:09:03;2.20;;;1.30;;
19778;SDS011;10049;59.306;18.090;2023-03-21T01:11:32;2.60;;;1.43;;
19778;SDS011;10049;59.306;18.090;2023-03-21T01:13:59;3.17;;;1.67;;
19778;SDS011;10049;59.306;18.090;2023-03-21T01:16:29;1.70;;;1.30;;
19778;SDS011;10049;59.306;18.090;2023-03-21T01:18:59;2.73;;;1.67;;
19778;SDS011;10049;59.306;18.090;2023-03-21T01:21:28;2.22;;;1.73;;
19778;SDS011;10049;59.306;18.090;2023-03-21T01:23:56;1.97;;;1.30;;
19778;SDS011;10049;59.306;18.090;2023-03-21T01:26:25;1.50;;;1.40;;
19778;SDS011;10049;59.306;18.090;2023-03-21T01:28:53;2.00;;;1.50;;
19778;SDS011;10049;59.306;18.090;2023-03-21T01:31:21;1.73;;;1.40;;
19778;SDS011;10049;59.306;18.090;2023-03-21T01:33:49;2.90;;;1.73;;
19778;SDS011;10049;59.306;18.090;2023-03-21T01:36:20;2.23;;;1.37;;
19778;SDS011;10049;59.306;18.090;2023-03-21T01:38:47;2.23;;;1.60;;
19778;SDS011;10049;59.306;18.090;2023-03-21T01:41:17;3.13;;;1.60;;
19778;SDS011;10049;59.306;18.090;2023-03-21T01:43:47;2.77;;;1.40;;
19778;SDS011;10049;59.306;18.090;2023-03-21T01:49:12;3.07;;;1.50;;
19778;SDS011;10049;59.306;18.090;2023-03-21T01:51:44;1.53;;;1.20;;
19778;SDS011;10049;59.306;18.090;2023-03-21T01:54:14;4.80;;;1.80;;
19778;SDS011;10049;59.306;18.090;2023-03-21T01:56:45;1.50;;;1.23;;
19778;SDS011;10049;59.306;18.090;2023-03-21T01:59:16;1.93;;;1.40;;
19778;SDS011;10049;59.306;18.090;2023-03-21T02:01:45;4.17;;;1.20;;
19778;SDS011;10049;59.306;18.090;2023-03-21T02:04:13;1.53;;;1.17;;
19778;SDS011;10049;59.306;18.090;2023-03-21T02:06:51;1.57;;;1.37;;
19778;SDS011;10049;59.306;18.090;2023-03-21T02:09:22;4.77;;;1.70;;
19778;SDS011;10049;59.306;18.090;2023-03-21T02:11:51;2.00;;;1.50;;
19778;SDS011;10049;59.306;18.090;2023-03-21T02:14:20;4.73;;;1.60;;
19778;SDS011;10049;59.306;18.090;2023-03-21T02:16:52;11.10;;;1.80;;
19778;SDS011;10049;59.306;18.090;2023-03-21T02:28:05;4.00;;;1.37;;
19778;SDS011;10049;59.306;18.090;2023-03-21T02:30:44;11.83;;;1.60;;
19778;SDS011;10049;59.306;18.090;2023-03-21T02:33:19;5.90;;;1.10;;
19778;SDS011;10049;59.306;18.090;2023-03-21T02:35:53;6.43;;;1.43;;
19778;SDS011;10049;59.306;18.090;2023-03-21T02:38:33;11.80;;;1.27;;
19778;SDS011;10049;59.306;18.090;2023-03-21T02:41:09;4.27;;;1.47;;
19778;SDS011;10049;59.306;18.090;2023-03-21T02:43:50;11.43;;;1.30;;
19778;SDS011;10049;59.306;18.090;2023-03-21T02:46:21;4.53;;;1.33;;
19778;SDS011;10049;59.306;18.090;2023-03-21T02:48:55;9.90;;;1.43;;
19778;SDS011;10049;59.306;18.090;2023-03-21T02:51:23;9.43;;;1.30;;
19778;SDS011;10049;59.306;18.090;2023-03-21T02:53:57;15.80;;;1.57;;
19778;SDS011;10049;59.306;18.090;2023-03-21T02:56:26;5.40;;;1.40;;
19778;SDS011;10049;59.306;18.090;2023-03-21T02:58:55;7.90;;;1.40;;
19778;SDS011;10049;59.306;18.090;2023-03-21T03:01:25;5.97;;;1.60;;
19778;SDS011;10049;59.306;18.090;2023-03-21T03:03:53;9.80;;;1.53;;
19778;SDS011;10049;59.306;18.090;2023-03-21T03:06:22;6.23;;;1.20;;
19778;SDS011;10049;59.306;18.090;2023-03-21T03:08:58;6.03;;;1.40;;
19778;SDS011;10049;59.306;18.090;2023-03-21T03:11:32;15.37;;;1.40;;
19778;SDS011;10049;59.306;18.090;2023-03-21T03:16:52;23.83;;;1.73;;
19778;SDS011;10049;59.306;18.090;2023-03-21T03:19:26;13.40;;;1.70;;
19778;SDS011;10049;59.306;18.090;2023-03-21T03:21:55;10.87;;;1.73;;
19778;SDS011;10049;59.306;18.090;2023-03-21T03:24:28;23.87;;;1.97;;
19778;SDS011;10049;59.306;18.090;2023-03-21T03:26:57;21.40;;;1.93;;
19778;SDS011;10049;59.306;18.090;2023-03-21T03:29:27;17.60;;;1.93;;
19778;SDS011;10049;59.306;18.090;2023-03-21T03:31:56;2.73;;;1.43;;
19778;SDS011;10049;59.306;18.090;2023-03-21T03:34:27;13.40;;;1.77;;
19778;SDS011;10049;59.306;18.090;2023-03-21T03:36:57;11.03;;;1.67;;
19778;SDS011;10049;59.306;18.090;2023-03-21T03:39:32;4.30;;;1.30;;
19778;SDS011;10049;59.306;18.090;2023-03-21T03:42:00;16.43;;;1.67;;
19778;SDS011;10049;59.306;18.090;2023-03-21T03:44:29;14.20;;;1.43;;
19778;SDS011;10049;59.306;18.090;2023-03-21T03:46:58;13.60;;;1.50;;
19778;SDS011;10049;59.306;18.090;2023-03-21T03:49:28;15.37;;;1.40;;
19778;SDS011;10049;59.306;18.090;2023-03-21T03:51:58;32.07;;;2.20;;
19778;SDS011;10049;59.306;18.090;2023-03-21T03:54:30;16.50;;;1.70;;
19778;SDS011;10049;59.306;18.090;2023-03-21T03:56:59;22.57;;;2.03;;
19778;SDS011;10049;59.306;18.090;2023-03-21T03:59:26;22.83;;;1.60;;
19778;SDS011;10049;59.306;18.090;2023-03-21T04:01:54;12.53;;;1.90;;
19778;SDS011;10049;59.306;18.090;2023-03-21T04:04:23;16.33;;;1.40;;
19778;SDS011;10049;59.306;18.090;2023-03-21T04:06:52;14.47;;;1.50;;
19778;SDS011;10049;59.306;18.090;2023-03-21T04:09:21;13.30;;;1.60;;
19778;SDS011;10049;59.306;18.090;2023-03-21T04:11:50;10.70;;;1.50;;
19778;SDS011;10049;59.306;18.090;2023-03-21T04:14:19;13.13;;;1.40;;
19778;SDS011;10049;59.306;18.090;2023-03-21T04:16:47;11.27;;;1.70;;
19778;SDS011;10049;59.306;18.090;2023-03-21T04:19:16;10.90;;;1.40;;
19778;SDS011;10049;59.306;18.090;2023-03-21T04:21:47;8.27;;;1.40;;
19778;SDS011;10049;59.306;18.090;2023-03-21T04:24:14;27.87;;;2.03;;
19778;SDS011;10049;59.306;18.090;2023-03-21T04:26:43;35.07;;;2.07;;
19778;SDS011;10049;59.306;18.090;2023-03-21T04:29:12;1.53;;;1.27;;
19778;SDS011;10049;59.306;18.090;2023-03-21T04:31:40;11.83;;;1.40;;
19778;SDS011;10049;59.306;18.090;2023-03-21T04:34:10;4.90;;;1.10;;
19778;SDS011;10049;59.306;18.090;2023-03-21T04:36:37;6.93;;;1.17;;
19778;SDS011;10049;59.306;18.090;2023-03-21T04:39:08;11.73;;;1.50;;
19778;SDS011;10049;59.306;18.090;2023-03-21T04:41:41;4.50;;;1.30;;
19778;SDS011;10049;59.306;18.090;2023-03-21T04:44:12;17.53;;;1.50;;
19778;SDS011;10049;59.306;18.090;2023-03-21T04:46:42;10.37;;;1.50;;
19778;SDS011;10049;59.306;18.090;2023-03-21T04:49:10;10.73;;;1.50;;
19778;SDS011;10049;59.306;18.090;2023-03-21T04:51:39;16.60;;;1.87;;
19778;SDS011;10049;59.306;18.090;2023-03-21T04:54:09;9.33;;;1.40;;
19778;SDS011;10049;59.306;18.090;2023-03-21T04:56:37;3.53;;;1.40;;
19778;SDS011;10049;59.306;18.090;2023-03-21T04:59:05;13.67;;;1.40;;
19778;SDS011;10049;59.306;18.090;2023-03-21T05:01:39;8.60;;;1.50;;
19778;SDS011;10049;59.306;18.090;2023-03-21T05:04:08;3.80;;;1.30;;
19778;SDS011;10049;59.306;18.090;2023-03-21T05:06:36;8.63;;;1.40;;
19778;SDS011;10049;59.306;18.090;2023-03-21T05:09:06;59.93;;;4.13;;
19778;SDS011;10049;59.306;18.090;2023-03-21T05:11:37;10.90;;;1.90;;
19778;SDS011;10049;59.306;18.090;2023-03-21T05:14:08;18.37;;;2.40;;
19778;SDS011;10049;59.306;18.090;2023-03-21T05:16:41;6.23;;;1.80;;
19778;SDS011;10049;59.306;18.090;2023-03-21T05:19:17;20.13;;;2.23;;
19778;SDS011;10049;59.306;18.090;2023-03-21T05:21:46;18.27;;;2.30;;
19778;SDS011;10049;59.306;18.090;2023-03-21T05:24:15;18.70;;;2.10;;
19778;SDS011;10049;59.306;18.090;2023-03-21T05:26:44;17.63;;;2.00;;
19778;SDS011;10049;59.306;18.090;2023-03-21T05:29:15;25.80;;;2.17;;
19778;SDS011;10049;59.306;18.090;2023-03-21T05:31:45;12.53;;;1.90;;
19778;SDS011;10049;59.306;18.090;2023-03-21T05:34:15;13.80;;;2.13;;
19778;SDS011;10049;59.306;18.090;2023-03-21T05:36:42;37.07;;;3.33;;
19778;SDS011;10049;59.306;18.090;2023-03-21T05:39:11;7.23;;;2.20;;
19778;SDS011;10049;59.306;18.090;2023-03-21T05:41:39;14.30;;;2.60;;
19778;SDS011;10049;59.306;18.090;2023-03-21T05:44:06;30.13;;;2.67;;
19778;SDS011;10049;59.306;18.090;2023-03-21T05:46:34;11.60;;;2.60;;
19778;SDS011;10049;59.306;18.090;2023-03-21T05:49:15;5.00;;;2.17;;
19778;SDS011;10049;59.306;18.090;2023-03-21T05:51:46;16.90;;;2.60;;
19778;SDS011;10049;59.306;18.090;2023-03-21T05:54:15;16.90;;;2.70;;
19778;SDS011;10049;59.306;18.090;2023-03-21T05:56:43;23.23;;;2.73;;
19778;SDS011;10049;59.306;18.090;2023-03-21T05:59:10;6.13;;;2.63;;
19778;SDS011;10049;59.306;18.090;2023-03-21T06:01:38;7.77;;;2.70;;
19778;SDS011;10049;59.306;18.090;2023-03-21T06:04:06;7.97;;;2.63;;
19778;SDS011;10049;59.306;18.090;2023-03-21T06:06:38;9.63;;;2.93;;
19778;SDS011;10049;59.306;18.090;2023-03-21T06:09:06;9.03;;;2.60;;
19778;SDS011;10049;59.306;18.090;2023-03-21T06:11:36;7.90;;;2.50;;
19778;SDS011;10049;59.306;18.090;2023-03-21T06:14:06;4.97;;;2.50;;
19778;SDS011;10049;59.306;18.090;2023-03-21T06:16:37;5.40;;;2.63;;
19778;SDS011;10049;59.306;18.090;2023-03-21T06:19:07;8.23;;;2.80;;
19778;SDS011;10049;59.306;18.090;2023-03-21T06:21:35;13.57;;;3.33;;
19778;SDS011;10049;59.306;18.090;2023-03-21T06:24:04;8.60;;;3.20;;
19778;SDS011;10049;59.306;18.090;2023-03-21T06:26:33;6.40;;;2.90;;
19778;SDS011;10049;59.306;18.090;2023-03-21T06:29:01;5.60;;;3.20;;
19778;SDS011;10049;59.306;18.090;2023-03-21T06:31:28;9.13;;;3.80;;
19778;SDS011;10049;59.306;18.090;2023-03-21T06:33:57;7.40;;;3.08;;
19778;SDS011;10049;59.306;18.090;2023-03-21T06:36:27;7.15;;;3.83;;
19778;SDS011;10049;59.306;18.090;2023-03-21T06:38:56;7.25;;;3.60;;
19778;SDS011;10049;59.306;18.090;2023-03-21T06:41:25;15.00;;;3.80;;
19778;SDS011;10049;59.306;18.090;2023-03-21T06:43:54;7.25;;;3.70;;
19778;SDS011;10049;59.306;18.090;2023-03-21T06:46:22;13.45;;;3.95;;
19778;SDS011;10049;59.306;18.090;2023-03-21T06:48:51;10.43;;;3.28;;
19778;SDS011;10049;59.306;18.090;2023-03-21T06:51:20;5.40;;;2.80;;
19778;SDS011;10049;59.306;18.090;2023-03-21T06:53:48;3.80;;;2.40;;
19778;SDS011;10049;59.306;18.090;2023-03-21T06:56:18;4.20;;;1.90;;
19778;SDS011;10049;59.306;18.090;2023-03-21T06:58:48;2.92;;;1.45;;
19778;SDS011;10049;59.306;18.090;2023-03-21T07:01:16;1.88;;;1.50;;
19778;SDS011;10049;59.306;18.090;2023-03-21T07:03:45;2.35;;;1.60;;
19778;SDS011;10049;59.306;18.090;2023-03-21T07:06:13;2.60;;;1.40;;
19778;SDS011;10049;59.306;18.090;2023-03-21T07:08:42;4.88;;;1.60;;
19778;SDS011;10049;59.306;18.090;2023-03-21T07:11:12;5.70;;;1.50;;
19778;SDS011;10049;59.306;18.090;2023-03-21T07:13:40;3.13;;;1.70;;
19778;SDS011;10049;59.306;18.090;2023-03-21T07:16:10;3.80;;;1.60;;
19778;SDS011;10049;59.306;18.090;2023-03-21T07:18:38;1.50;;;1.20;;
19778;SDS011;10049;59.306;18.090;2023-03-21T07:21:07;5.32;;;1.30;;
19778;SDS011;10049;59.306;18.090;2023-03-21T07:23:35;7.05;;;1.40;;
19778;SDS011;10049;59.306;18.090;2023-03-21T07:26:03;1.58;;;1.17;;
19778;SDS011;10049;59.306;18.090;2023-03-21T07:28:31;2.42;;;1.23;;
19778;SDS011;10049;59.306;18.090;2023-03-21T07:30:59;1.83;;;1.20;;
19778;SDS011;10049;59.306;18.090;2023-03-21T07:33:30;1.67;;;1.40;;
19778;SDS011;10049;59.306;18.090;2023-03-21T07:35:58;1.20;;;1.10;;
19778;SDS011;10049;59.306;18.090;2023-03-21T07:38:39;4.45;;;1.20;;
19778;SDS011;10049;59.306;18.090;2023-03-21T07:41:06;1.83;;;1.30;;
19778;SDS011;10049;59.306;18.090;2023-03-21T07:43:34;1.25;;;1.10;;
19778;SDS011;10049;59.306;18.090;2023-03-21T07:46:02;1.50;;;0.98;;
19778;SDS011;10049;59.306;18.090;2023-03-21T07:48:39;1.75;;;1.02;;
19778;SDS011;10049;59.306;18.090;2023-03-21T07:51:07;1.98;;;1.00;;
19778;SDS011;10049;59.306;18.090;2023-03-21T07:53:34;1.20;;;1.02;;
19778;SDS011;10049;59.306;18.090;2023-03-21T07:56:03;6.63;;;1.30;;
19778;SDS011;10049;59.306;18.090;2023-03-21T07:58:32;1.33;;;1.20;;
19778;SDS011;10049;59.306;18.090;2023-03-21T08:01:01;3.17;;;1.30;;
19778;SDS011;10049;59.306;18.090;2023-03-21T08:03:28;2.00;;;1.30;;
19778;SDS011;10049;59.306;18.090;2023-03-21T08:05:59;1.10;;;1.00;;
19778;SDS011;10049;59.306;18.090;2023-03-21T08:08:27;1.48;;;1.20;;
19778;SDS011;10049;59.306;18.090;2023-03-21T08:10:55;1.27;;;1.17;;
19778;SDS011;10049;59.306;18.090;2023-03-21T08:13:26;1.20;;;1.10;;
19778;SDS011;10049;59.306;18.090;2023-03-21T08:15:54;2.97;;;0.95;;
19778;SDS011;10049;59.306;18.090;2023-03-21T08:18:22;1.38;;;1.13;;
19778;SDS011;10049;59.306;18.090;2023-03-21T08:20:50;1.20;;;1.10;;
19778;SDS011;10049;59.306;18.090;2023-03-21T08:23:21;2.42;;;1.10;;
19778;SDS011;10049;59.306;18.090;2023-03-21T08:25:53;1.20;;;1.00;;
19778;SDS011;10049;59.306;18.090;2023-03-21T08:28:22;1.02;;;1.00;;
19778;SDS011;10049;59.306;18.090;2023-03-21T08:30:51;2.05;;;1.10;;
19778;SDS011;10049;59.306;18.090;2023-03-21T08:33:20;0.90;;;0.90;;
19778;SDS011;10049;59.306;18.090;2023-03-21T08:35:49;7.93;;;1.52;;
19778;SDS011;10049;59.306;18.090;2023-03-21T08:38:17;1.52;;;1.02;;
19778;SDS011;10049;59.306;18.090;2023-03-21T08:40:47;1.55;;;1.10;;
19778;SDS011;10049;59.306;18.090;2023-03-21T08:43:15;1.00;;;0.90;;
19778;SDS011;10049;59.306;18.090;2023-03-21T08:45:42;1.27;;;1.00;;
19778;SDS011;10049;59.306;18.090;2023-03-21T08:48:10;1.38;;;0.80;;
19778;SDS011;10049;59.306;18.090;2023-03-21T08:50:37;0.77;;;0.70;;
19778;SDS011;10049;59.306;18.090;2023-03-21T08:53:06;4.97;;;0.90;;
19778;SDS011;10049;59.306;18.090;2023-03-21T08:55:34;4.63;;;1.10;;
19778;SDS011;10049;59.306;18.090;2023-03-21T08:58:06;1.30;;;0.70;;
19778;SDS011;10049;59.306;18.090;2023-03-21T09:00:33;0.60;;;0.60;;
19778;SDS011;10049;59.306;18.090;2023-03-21T09:03:03;3.15;;;0.80;;
19778;SDS011;10049;59.306;18.090;2023-03-21T09:05:31;1.27;;;0.80;;
19778;SDS011;10049;59.306;18.090;2023-03-21T09:08:00;3.33;;;0.90;;
19778;SDS011;10049;59.306;18.090;2023-03-21T09:10:29;2.15;;;0.90;;
19778;SDS011;10049;59.306;18.090;2023-03-21T09:12:57;3.20;;;0.80;;
19778;SDS011;10049;59.306;18.090;2023-03-21T09:15:26;0.75;;;0.70;;
19778;SDS011;10049;59.306;18.090;2023-03-21T09:17:56;1.40;;;0.57;;
19778;SDS011;10049;59.306;18.090;2023-03-21T09:20:39;6.28;;;1.27;;
19778;SDS011;10049;59.306;18.090;2023-03-21T09:23:08;0.85;;;0.73;;
19778;SDS011;10049;59.306;18.090;2023-03-21T09:25:36;0.60;;;0.60;;
19778;SDS011;10049;59.306;18.090;2023-03-21T09:28:04;6.13;;;1.00;;
19778;SDS011;10049;59.306;18.090;2023-03-21T09:30:37;1.35;;;0.70;;
19778;SDS011;10049;59.306;18.090;2023-03-21T09:33:05;4.07;;;0.68;;
19778;SDS011;10049;59.306;18.090;2023-03-21T09:35:43;12.15;;;1.80;;
19778;SDS011;10049;59.306;18.090;2023-03-21T09:38:11;19.98;;;1.02;;
19778;SDS011;10049;59.306;18.090;2023-03-21T09:40:44;4.40;;;0.60;;
19778;SDS011;10049;59.306;18.090;2023-03-21T09:43:19;1.38;;;0.63;;
19778;SDS011;10049;59.306;18.090;2023-03-21T09:45:53;5.55;;;0.63;;
19778;SDS011;10049;59.306;18.090;2023-03-21T09:48:32;5.00;;;0.70;;
19778;SDS011;10049;59.306;18.090;2023-03-21T09:51:01;0.63;;;0.52;;
19778;SDS011;10049;59.306;18.090;2023-03-21T09:53:31;2.95;;;0.65;;
19778;SDS011;10049;59.306;18.090;2023-03-21T09:56:02;1.35;;;0.70;;
19778;SDS011;10049;59.306;18.090;2023-03-21T09:58:32;1.85;;;0.70;;
19778;SDS011;10049;59.306;18.090;2023-03-21T10:01:08;1.08;;;0.80;;
19778;SDS011;10049;59.306;18.090;2023-03-21T10:03:51;2.50;;;0.50;;
19778;SDS011;10049;59.306;18.090;2023-03-21T10:06:20;3.40;;;0.50;;
19778;SDS011;10049;59.306;18.090;2023-03-21T10:08:54;2.28;;;0.57;;
19778;SDS011;10049;59.306;18.090;2023-03-21T10:11:26;3.35;;;0.60;;
19778;SDS011;10049;59.306;18.090;2023-03-21T10:13:56;1.00;;;0.70;;
19778;SDS011;10049;59.306;18.090;2023-03-21T10:16:31;3.92;;;0.50;;
19778;SDS011;10049;59.306;18.090;2023-03-21T10:19:02;1.92;;;0.68;;
19778;SDS011;10049;59.306;18.090;2023-03-21T10:21:32;0.88;;;0.40;;
19778;SDS011;10049;59.306;18.090;2023-03-21T10:24:00;4.45;;;0.82;;
19778;SDS011;10049;59.306;18.090;2023-03-21T10:26:28;2.00;;;0.80;;
19778;SDS011;10049;59.306;18.090;2023-03-21T10:28:56;1.15;;;0.55;;
19778;SDS011;10049;59.306;18.090;2023-03-21T10:31:28;1.88;;;0.50;;
19778;SDS011;10049;59.306;18.090;2023-03-21T10:33:58;3.47;;;0.50;;
19778;SDS011;10049;59.306;18.090;2023-03-21T10:36:29;1.33;;;0.43;;
19778;SDS011;10049;59.306;18.090;2023-03-21T10:39:00;1.40;;;0.70;;
19778;SDS011;10049;59.306;18.090;2023-03-21T10:41:29;2.50;;;0.50;;
19778;SDS011;10049;59.306;18.090;2023-03-21T10:44:05;4.65;;;0.55;;
19778;SDS011;10049;59.306;18.090;2023-03-21T10:46:35;2.25;;;0.40;;
19778;SDS011;10049;59.306;18.090;2023-03-21T10:49:13;0.57;;;0.40;;
19778;SDS011;10049;59.306;18.090;2023-03-21T10:51:43;0.40;;;0.30;;
19778;SDS011;10049;59.306;18.090;2023-03-21T10:54:12;3.70;;;0.40;;
19778;SDS011;10049;59.306;18.090;2023-03-21T10:56:42;2.50;;;0.50;;
19778;SDS011;10049;59.306;18.090;2023-03-21T10:59:11;1.50;;;0.50;;
19778;SDS011;10049;59.306;18.090;2023-03-21T11:01:47;6.93;;;0.60;;
19778;SDS011;10049;59.306;18.090;2023-03-21T11:04:16;1.95;;;0.50;;
19778;SDS011;10049;59.306;18.090;2023-03-21T11:06:44;2.85;;;0.50;;
19778;SDS011;10049;59.306;18.090;2023-03-21T11:09:17;8.45;;;0.57;;
19778;SDS011;10049;59.306;18.090;2023-03-21T11:11:49;2.35;;;0.60;;
19778;SDS011;10049;59.306;18.090;2023-03-21T11:14:25;2.53;;;0.30;;
19778;SDS011;10049;59.306;18.090;2023-03-21T11:16:55;0.65;;;0.30;;
19778;SDS011;10049;59.306;18.090;2023-03-21T11:19:27;0.73;;;0.45;;
19778;SDS011;10049;59.306;18.090;2023-03-21T11:21:56;6.07;;;0.85;;
19778;SDS011;10049;59.306;18.090;2023-03-21T11:24:27;2.30;;;0.30;;
19778;SDS011;10049;59.306;18.090;2023-03-21T11:26:56;2.97;;;0.45;;
19778;SDS011;10049;59.306;18.090;2023-03-21T11:29:28;0.85;;;0.50;;
19778;SDS011;10049;59.306;18.090;2023-03-21T11:31:59;1.80;;;0.50;;
19778;SDS011;10049;59.306;18.090;2023-03-21T11:34:27;1.05;;;0.28;;
19778;SDS011;10049;59.306;18.090;2023-03-21T11:36:58;7.45;;;0.50;;
19778;SDS011;10049;59.306;18.090;2023-03-21T11:39:29;0.80;;;0.57;;
19778;SDS011;10049;59.306;18.090;2023-03-21T11:41:57;4.25;;;0.50;;
19778;SDS011;10049;59.306;18.090;2023-03-21T11:44:28;1.60;;;0.40;;
19778;SDS011;10049;59.306;18.090;2023-03-21T11:46:56;2.72;;;0.60;;
19778;SDS011;10049;59.306;18.090;2023-03-21T11:49:29;5.47;;;0.50;;
19778;SDS011;10049;59.306;18.090;2023-03-21T11:52:06;1.25;;;0.40;;
19778;SDS011;10049;59.306;18.090;2023-03-21T11:54:50;0.30;;;0.30;;
19778;SDS011;10049;59.306;18.090;2023-03-21T11:57:23;0.40;;;0.40;;
19778;SDS011;10049;59.306;18.090;2023-03-21T11:59:59;0.30;;;0.30;;
19778;SDS011;10049;59.306;18.090;2023-03-21T12:05:21;0.60;;;0.50;;
19778;SDS011;10049;59.306;18.090;2023-03-21T12:07:51;2.63;;;0.43;;
19778;SDS011;10049;59.306;18.090;2023-03-21T12:10:32;3.22;;;0.43;;
19778;SDS011;10049;59.306;18.090;2023-03-21T12:15:59;3.17;;;0.52;;
19778;SDS011;10049;59.306;18.090;2023-03-21T12:18:36;4.18;;;0.40;;
19778;SDS011;10049;59.306;18.090;2023-03-21T12:21:11;0.20;;;0.20;;
19778;SDS011;10049;59.306;18.090;2023-03-21T12:23:45;1.02;;;0.30;;
19778;SDS011;10049;59.306;18.090;2023-03-21T12:26:18;0.20;;;0.20;;
19778;SDS011;10049;59.306;18.090;2023-03-21T12:28:51;0.52;;;0.30;;
19778;SDS011;10049;59.306;18.090;2023-03-21T12:31:25;0.77;;;0.30;;
19778;SDS011;10049;59.306;18.090;2023-03-21T12:34:02;0.60;;;0.30;;
19778;SDS011;10049;59.306;18.090;2023-03-21T12:36:38;1.35;;;0.47;;
19778;SDS011;10049;59.306;18.090;2023-03-21T12:39:11;3.05;;;0.40;;
19778;SDS011;10049;59.306;18.090;2023-03-21T12:41:42;1.33;;;0.30;;
19778;SDS011;10049;59.306;18.090;2023-03-21T12:44:11;0.30;;;0.30;;
19778;SDS011;10049;59.306;18.090;2023-03-21T12:46:44;1.08;;;0.40;;
19778;SDS011;10049;59.306;18.090;2023-03-21T12:49:15;0.20;;;0.20;;
19778;SDS011;10049;59.306;18.090;2023-03-21T12:51:47;1.10;;;0.30;;
19778;SDS011;10049;59.306;18.090;2023-03-21T12:54:20;2.65;;;0.40;;
19778;SDS011;10049;59.306;18.090;2023-03-21T12:56:51;0.20;;;0.20;;
19778;SDS011;10049;59.306;18.090;2023-03-21T12:59:30;0.20;;;0.20;;
19778;SDS011;10049;59.306;18.090;2023-03-21T13:02:04;2.97;;;0.43;;
19778;SDS011;10049;59.306;18.090;2023-03-21T13:04:39;0.30;;;0.30;;
19778;SDS011;10049;59.306;18.090;2023-03-21T13:07:12;2.20;;;0.32;;
19778;SDS011;10049;59.306;18.090;2023-03-21T13:09:44;0.20;;;0.20;;
19778;SDS011;10049;59.306;18.090;2023-03-21T13:12:20;1.13;;;0.43;;
19778;SDS011;10049;59.306;18.090;2023-03-21T13:15:00;0.68;;;0.35;;
19778;SDS011;10049;59.306;18.090;2023-03-21T13:17:30;1.17;;;0.40;;
19778;SDS011;10049;59.306;18.090;2023-03-21T13:20:03;0.32;;;0.30;;
19778;SDS011;10049;59.306;18.090;2023-03-21T13:22:38;1.08;;;0.40;;
19778;SDS011;10049;59.306;18.090;2023-03-21T13:25:14;0.43;;;0.20;;
19778;SDS011;10049;59.306;18.090;2023-03-21T13:27:49;2.25;;;0.30;;
19778;SDS011;10049;59.306;18.090;2023-03-21T13:30:18;0.30;;;0.30;;
19778;SDS011;10049;59.306;18.090;2023-03-21T13:32:47;0.32;;;0.30;;
19778;SDS011;10049;59.306;18.090;2023-03-21T13:35:17;1.20;;;0.32;;
19778;SDS011;10049;59.306;18.090;2023-03-21T13:37:55;1.55;;;0.45;;
19778;SDS011;10049;59.306;18.090;2023-03-21T13:40:26;2.25;;;0.40;;
19778;SDS011;10049;59.306;18.090;2023-03-21T13:42:57;0.50;;;0.40;;
19778;SDS011;10049;59.306;18.090;2023-03-21T13:45:29;0.30;;;0.30;;
19778;SDS011;10049;59.306;18.090;2023-03-21T13:47:58;1.77;;;0.52;;
19778;SDS011;10049;59.306;18.090;2023-03-21T13:56:06;0.73;;;0.30;;
19778;SDS011;10049;59.306;18.090;2023-03-21T13:58:36;2.35;;;0.32;;
19778;SDS011;10049;59.306;18.090;2023-03-21T14:01:12;3.28;;;0.40;;
19778;SDS011;10049;59.306;18.090;2023-03-21T14:03:44;0.22;;;0.22;;
19778;SDS011;10049;59.306;18.090;2023-03-21T14:06:15;1.08;;;0.35;;
19778;SDS011;10049;59.306;18.090;2023-03-21T14:08:45;1.42;;;0.43;;
19778;SDS011;10049;59.306;18.090;2023-03-21T14:11:16;4.60;;;0.32;;
19778;SDS011;10049;59.306;18.090;2023-03-21T14:13:46;0.68;;;0.38;;
19778;SDS011;10049;59.306;18.090;2023-03-21T14:16:23;0.55;;;0.30;;
19778;SDS011;10049;59.306;18.090;2023-03-21T14:18:54;2.63;;;0.45;;
19778;SDS011;10049;59.306;18.090;2023-03-21T14:21:23;0.52;;;0.43;;
19778;SDS011;10049;59.306;18.090;2023-03-21T14:23:55;1.70;;;0.40;;
19778;SDS011;10049;59.306;18.090;2023-03-21T14:26:24;1.05;;;0.30;;
19778;SDS011;10049;59.306;18.090;2023-03-21T14:28:55;0.80;;;0.38;;
19778;SDS011;10049;59.306;18.090;2023-03-21T14:31:24;1.27;;;0.30;;
19778;SDS011;10049;59.306;18.090;2023-03-21T14:33:54;0.88;;;0.20;;
19778;SDS011;10049;59.306;18.090;2023-03-21T14:36:23;2.05;;;0.43;;
19778;SDS011;10049;59.306;18.090;2023-03-21T14:38:54;0.45;;;0.20;;
19778;SDS011;10049;59.306;18.090;2023-03-21T14:41:22;0.30;;;0.30;;
19778;SDS011;10049;59.306;18.090;2023-03-21T14:44:03;1.02;;;0.30;;
19778;SDS011;10049;59.306;18.090;2023-03-21T14:46:37;0.55;;;0.50;;
19778;SDS011;10049;59.306;18.090;2023-03-21T14:49:09;2.58;;;0.40;;
19778;SDS011;10049;59.306;18.090;2023-03-21T14:51:40;5.25;;;0.40;;
19778;SDS011;10049;59.306;18.090;2023-03-21T14:54:11;1.20;;;0.43;;
19778;SDS011;10049;59.306;18.090;2023-03-21T14:56:48;0.88;;;0.30;;
19778;SDS011;10049;59.306;18.090;2023-03-21T14:59:20;0.38;;;0.30;;
19778;SDS011;10049;59.306;18.090;2023-03-21T15:01:49;3.45;;;0.40;;
19778;SDS011;10049;59.306;18.090;2023-03-21T15:04:17;10.38;;;0.65;;
19778;SDS011;10049;59.306;18.090;2023-03-21T15:09:33;0.60;;;0.30;;
19778;SDS011;10049;59.306;18.090;2023-03-21T15:12:01;4.38;;;0.65;;
19778;SDS011;10049;59.306;18.090;2023-03-21T15:14:38;8.95;;;0.60;;
19778;SDS011;10049;59.306;18.090;2023-03-21T15:17:06;1.80;;;0.40;;
19778;SDS011;10049;59.306;18.090;2023-03-21T15:19:36;2.50;;;0.40;;
19778;SDS011;10049;59.306;18.090;2023-03-21T15:22:08;0.68;;;0.30;;